createdAt,value
2022-12-03T00:00:46.869Z,13.60
2022-12-03T00:03:14.095Z,13.97
2022-12-03T00:05:48.363Z,15.17
2022-12-03T00:08:16.088Z,13.80
2022-12-03T00:10:43.246Z,14.07
2022-12-03T00:13:10.271Z,13.60
2022-12-03T00:15:37.333Z,13.93
2022-12-03T00:18:04.437Z,13.90
2022-12-03T00:20:31.488Z,12.97
2022-12-03T00:22:58.547Z,12.83
2022-12-03T00:25:25.841Z,13.60
2022-12-03T00:27:52.920Z,13.83
2022-12-03T00:30:20.000Z,13.30
2022-12-03T00:32:47.102Z,13.80
2022-12-03T00:35:14.131Z,14.07
2022-12-03T00:37:41.230Z,13.67
2022-12-03T00:40:08.595Z,13.90
2022-12-03T00:42:35.683Z,14.07
2022-12-03T00:45:02.824Z,12.37
2022-12-03T00:47:29.957Z,14.30
2022-12-03T00:49:59.386Z,15.27
2022-12-03T00:52:26.513Z,12.50
2022-12-03T00:54:53.917Z,12.97
2022-12-03T00:57:21.217Z,12.33
2022-12-03T00:59:48.404Z,11.77
2022-12-03T01:02:15.490Z,13.90
2022-12-03T01:04:42.781Z,13.80
2022-12-03T01:07:09.914Z,14.67
2022-12-03T01:09:37.047Z,13.67
2022-12-03T01:12:04.752Z,14.27
2022-12-03T01:14:31.815Z,14.87
2022-12-03T01:16:58.904Z,15.73
2022-12-03T01:19:25.950Z,14.00
2022-12-03T01:21:53.163Z,16.60
2022-12-03T01:24:20.502Z,15.10
2022-12-03T01:26:47.846Z,13.30
2022-12-03T01:29:15.020Z,13.87
2022-12-03T01:32:00.995Z,14.90
2022-12-03T01:34:28.190Z,13.60
2022-12-03T01:36:55.426Z,14.10
2022-12-03T01:39:22.570Z,14.27
2022-12-03T01:41:49.762Z,14.00
2022-12-03T01:44:33.141Z,14.63
2022-12-03T01:47:01.257Z,13.63
2022-12-03T01:49:34.446Z,15.57
2022-12-03T01:52:01.566Z,15.43
2022-12-03T01:54:30.197Z,15.73
2022-12-03T01:56:57.362Z,15.27
2022-12-03T01:59:26.433Z,14.37
2022-12-03T02:01:53.460Z,14.10
2022-12-03T02:04:20.706Z,13.63
2022-12-03T02:06:47.820Z,15.93
2022-12-03T02:09:15.053Z,15.70
2022-12-03T02:11:45.862Z,14.53
2022-12-03T02:14:13.706Z,14.70
2022-12-03T02:16:41.019Z,16.87
2022-12-03T02:19:10.937Z,16.33
2022-12-03T02:21:53.861Z,15.37
2022-12-03T02:24:33.755Z,17.37
2022-12-03T02:27:00.860Z,14.50
2022-12-03T02:29:27.900Z,15.53
2022-12-03T02:31:55.007Z,16.13
2022-12-03T02:34:38.790Z,15.13
2022-12-03T02:37:06.541Z,14.33
2022-12-03T02:39:34.054Z,14.17
2022-12-03T02:42:19.956Z,14.73
2022-12-03T02:44:46.993Z,14.90
2022-12-03T02:47:14.147Z,14.50
2022-12-03T02:49:41.178Z,15.40
2022-12-03T02:52:08.248Z,14.40
2022-12-03T02:54:35.275Z,14.30
2022-12-03T02:57:02.320Z,14.37
2022-12-03T02:59:29.459Z,15.07
2022-12-03T03:01:56.692Z,16.00
2022-12-03T03:04:24.877Z,14.33
2022-12-03T03:06:52.338Z,15.40
2022-12-03T03:09:20.121Z,15.00
2022-12-03T03:11:47.156Z,16.10
2022-12-03T03:14:14.241Z,14.13
2022-12-03T03:16:41.432Z,14.27
2022-12-03T03:19:08.663Z,15.67
2022-12-03T03:21:35.703Z,14.73
2022-12-03T03:24:02.867Z,15.13
2022-12-03T03:26:29.910Z,15.17
2022-12-03T03:28:59.953Z,15.17
2022-12-03T03:31:27.064Z,14.10
2022-12-03T03:33:54.206Z,15.90
2022-12-03T03:36:21.256Z,14.80
2022-12-03T03:38:48.371Z,13.20
2022-12-03T03:41:15.756Z,13.33
2022-12-03T03:43:43.044Z,14.33
2022-12-03T03:46:10.251Z,14.00
2022-12-03T03:48:37.426Z,14.20
2022-12-03T03:51:08.721Z,14.43
2022-12-03T03:53:36.946Z,14.50
2022-12-03T03:56:04.062Z,12.67
2022-12-03T04:02:00.277Z,13.37
2022-12-03T04:04:27.442Z,14.80
2022-12-03T04:06:54.523Z,14.17
2022-12-03T04:09:21.557Z,14.27
2022-12-03T04:12:07.309Z,14.77
2022-12-03T04:14:34.349Z,15.20
2022-12-03T04:17:01.457Z,14.10
2022-12-03T04:19:28.541Z,13.50
2022-12-03T04:22:14.537Z,16.67
2022-12-03T04:24:41.585Z,14.77
2022-12-03T04:27:27.653Z,15.23
2022-12-03T04:29:54.664Z,15.37
2022-12-03T04:32:40.649Z,16.40
2022-12-03T04:35:26.708Z,16.33
2022-12-03T04:37:53.789Z,15.10
2022-12-03T04:40:39.752Z,16.67
2022-12-03T04:43:06.779Z,15.57
2022-12-03T04:45:33.960Z,18.00
2022-12-03T04:48:01.015Z,15.97
2022-12-03T04:50:28.035Z,17.17
2022-12-03T04:52:55.081Z,18.33
2022-12-03T04:55:22.111Z,18.23
2022-12-03T04:57:49.141Z,18.77
2022-12-03T05:00:16.529Z,18.27
2022-12-03T05:02:43.703Z,18.23
2022-12-03T05:05:11.159Z,15.40
2022-12-03T05:07:38.472Z,16.10
2022-12-03T05:10:06.008Z,14.77
2022-12-03T05:12:33.040Z,14.97
2022-12-03T05:15:00.154Z,15.00
2022-12-03T05:17:27.228Z,16.00
2022-12-03T05:20:13.057Z,17.47
2022-12-03T05:22:40.088Z,17.33
2022-12-03T05:25:07.388Z,16.77
2022-12-03T05:27:34.724Z,16.40
2022-12-03T05:30:01.748Z,16.80
2022-12-03T05:32:28.816Z,14.70
2022-12-03T05:34:56.258Z,15.87
2022-12-03T05:37:23.525Z,16.83
2022-12-03T05:39:50.716Z,13.90
2022-12-03T05:42:36.257Z,16.77
2022-12-03T05:45:03.323Z,16.63
2022-12-03T05:47:30.411Z,18.87
2022-12-03T05:49:57.463Z,17.23
2022-12-03T05:52:24.495Z,15.67
2022-12-03T05:54:51.757Z,17.67
2022-12-03T05:57:19.001Z,16.63
2022-12-03T05:59:46.060Z,16.37
2022-12-03T06:02:13.311Z,13.73
2022-12-03T06:04:40.461Z,15.27
2022-12-03T06:07:11.066Z,13.67
2022-12-03T06:09:40.964Z,13.50
2022-12-03T06:12:10.861Z,12.60
2022-12-03T06:14:37.905Z,12.03
2022-12-03T06:17:05.237Z,12.87
2022-12-03T06:19:32.426Z,12.10
2022-12-03T06:21:59.449Z,12.80
2022-12-03T06:24:26.492Z,13.53
2022-12-03T06:26:53.510Z,14.30
2022-12-03T06:29:20.558Z,11.93
2022-12-03T06:31:47.608Z,12.93
2022-12-03T06:34:14.647Z,12.73
2022-12-03T06:36:41.693Z,13.43
2022-12-03T06:39:08.762Z,12.93
2022-12-03T06:41:35.778Z,12.70
2022-12-03T06:44:02.882Z,12.43
2022-12-03T06:46:30.313Z,12.30
2022-12-03T06:48:57.434Z,13.73
2022-12-03T06:51:24.473Z,13.33
2022-12-03T06:53:51.554Z,13.07
2022-12-03T06:56:22.129Z,14.67
2022-12-03T06:58:49.651Z,12.07
2022-12-03T07:01:16.720Z,13.37
2022-12-03T07:03:43.881Z,13.83
2022-12-03T07:06:10.964Z,12.20
2022-12-03T07:08:41.115Z,13.20
2022-12-03T07:11:28.144Z,8.60
2022-12-03T07:13:58.837Z,11.90
2022-12-03T07:16:28.961Z,11.17
2022-12-03T07:18:56.115Z,10.30
2022-12-03T07:21:23.237Z,11.00
2022-12-03T07:23:50.339Z,11.13
2022-12-03T07:26:17.394Z,10.77
2022-12-03T07:28:44.478Z,10.57
2022-12-03T07:31:11.649Z,11.10
2022-12-03T07:33:38.800Z,10.83
2022-12-03T07:36:06.016Z,11.87
2022-12-03T07:38:33.121Z,10.53
2022-12-03T07:41:00.156Z,11.90
2022-12-03T07:43:27.277Z,12.07
2022-12-03T07:45:54.363Z,12.63
2022-12-03T07:48:21.457Z,12.23
2022-12-03T07:50:48.586Z,10.80
2022-12-03T07:53:15.712Z,10.27
2022-12-03T07:55:42.795Z,12.10
2022-12-03T07:58:09.811Z,13.80
2022-12-03T08:00:36.992Z,11.30
2022-12-03T08:03:04.076Z,11.33
2022-12-03T08:05:31.185Z,11.43
2022-12-03T08:07:58.319Z,11.70
2022-12-03T08:10:26.587Z,11.13
2022-12-03T08:12:53.880Z,12.10
2022-12-03T08:15:24.005Z,13.07
2022-12-03T08:17:55.209Z,10.30
2022-12-03T08:20:23.369Z,11.73
2022-12-03T08:22:50.981Z,12.40
2022-12-03T08:25:20.693Z,10.70
2022-12-03T08:27:47.776Z,10.93
2022-12-03T08:30:15.523Z,11.77
2022-12-03T08:32:42.811Z,10.37
2022-12-03T08:35:13.820Z,11.67
2022-12-03T08:37:40.945Z,12.37
2022-12-03T08:40:21.381Z,11.57
2022-12-03T08:42:48.464Z,11.90
2022-12-03T08:45:21.725Z,12.47
2022-12-03T08:47:48.760Z,12.53
2022-12-03T08:50:27.495Z,11.70
2022-12-03T08:52:55.186Z,11.67
2022-12-03T08:55:35.282Z,13.40
2022-12-03T08:58:04.050Z,10.83
2022-12-03T09:00:31.067Z,11.33
2022-12-03T09:02:59.881Z,11.53
2022-12-03T09:05:28.109Z,12.27
2022-12-03T09:07:55.214Z,11.70
2022-12-03T09:10:22.359Z,10.47
2022-12-03T09:12:49.392Z,9.93
2022-12-03T09:15:16.470Z,12.47
2022-12-03T09:17:43.480Z,10.93
2022-12-03T09:20:10.744Z,10.27
2022-12-03T09:22:37.785Z,10.37
2022-12-03T09:25:04.980Z,11.23
2022-12-03T09:27:32.032Z,11.20
2022-12-03T09:29:59.223Z,12.47
2022-12-03T09:32:26.334Z,11.63
2022-12-03T09:34:54.423Z,12.03
2022-12-03T09:37:22.224Z,11.20
2022-12-03T09:39:49.308Z,9.90
2022-12-03T09:42:16.416Z,12.67
2022-12-03T09:44:43.504Z,11.73
2022-12-03T09:47:10.617Z,12.43
2022-12-03T09:49:38.220Z,11.57
2022-12-03T09:52:05.545Z,11.80
2022-12-03T09:54:32.699Z,12.53
2022-12-03T09:57:00.470Z,12.37
2022-12-03T09:59:28.257Z,11.40
2022-12-03T10:01:55.401Z,13.10
2022-12-03T10:04:22.620Z,12.13
2022-12-03T10:06:49.715Z,14.07
2022-12-03T10:09:20.931Z,12.20
2022-12-03T10:11:48.017Z,10.70
2022-12-03T10:14:15.173Z,10.10
2022-12-03T10:16:42.339Z,14.03
2022-12-03T10:19:10.283Z,12.63
2022-12-03T10:21:37.541Z,14.10
2022-12-03T10:24:23.350Z,13.20
2022-12-03T10:26:51.068Z,13.60
2022-12-03T10:29:21.920Z,13.27
2022-12-03T10:31:55.799Z,15.63
2022-12-03T10:34:32.940Z,13.83
2022-12-03T10:37:09.034Z,13.10
2022-12-03T10:39:55.729Z,13.40
2022-12-03T10:42:23.592Z,12.87
2022-12-03T10:44:53.741Z,14.03
2022-12-03T10:47:22.476Z,12.60
2022-12-03T10:49:50.028Z,11.23
2022-12-03T10:52:25.626Z,14.07
2022-12-03T10:54:53.470Z,13.10
2022-12-03T10:57:20.765Z,14.80
2022-12-03T10:59:47.814Z,15.97
2022-12-03T11:02:19.122Z,14.53
2022-12-03T11:04:46.161Z,13.97
2022-12-03T11:07:15.543Z,13.93
2022-12-03T11:09:46.317Z,16.03
2022-12-03T11:12:19.434Z,14.73
2022-12-03T11:14:56.493Z,13.60
2022-12-03T11:17:42.805Z,13.13
2022-12-03T11:20:10.996Z,15.60
2022-12-03T11:22:41.101Z,14.33
2022-12-03T11:25:26.795Z,15.33
2022-12-03T11:28:12.799Z,13.40
2022-12-03T11:31:01.210Z,11.93
2022-12-03T11:33:32.133Z,13.80
2022-12-03T11:36:02.173Z,13.47
2022-12-03T11:38:38.224Z,14.33
2022-12-03T11:41:21.890Z,14.27
2022-12-03T11:43:56.160Z,13.87
2022-12-03T11:46:24.137Z,13.67
2022-12-03T11:48:52.118Z,15.00
2022-12-03T11:51:20.247Z,13.53
2022-12-03T11:53:47.371Z,13.67
2022-12-03T11:56:18.334Z,15.97
2022-12-03T11:58:45.706Z,13.93
2022-12-03T12:01:12.838Z,14.90
2022-12-03T12:03:44.190Z,13.80
2022-12-03T12:06:12.206Z,15.80
2022-12-03T12:08:43.890Z,14.77
2022-12-03T12:11:21.017Z,14.23
2022-12-03T12:13:52.194Z,13.60
2022-12-03T12:16:38.160Z,15.30
2022-12-03T12:19:23.914Z,14.73
2022-12-03T12:21:51.062Z,14.97
2022-12-03T12:24:38.174Z,14.30
2022-12-03T12:27:07.050Z,17.00
2022-12-03T12:29:34.485Z,16.07
2022-12-03T12:32:07.962Z,13.10
2022-12-03T12:34:35.889Z,15.03
2022-12-03T12:37:03.062Z,15.07
2022-12-03T12:39:31.366Z,14.63
2022-12-03T12:41:58.528Z,14.27
2022-12-03T12:44:26.548Z,13.00
2022-12-03T12:46:54.735Z,12.63
2022-12-03T12:49:26.774Z,13.67
2022-12-03T12:51:53.979Z,14.57
2022-12-03T12:54:21.129Z,13.73
2022-12-03T12:56:49.891Z,13.40
2022-12-03T12:59:20.649Z,13.40
2022-12-03T13:01:48.671Z,12.77
2022-12-03T13:04:16.966Z,12.10
2022-12-03T13:06:44.078Z,12.80
2022-12-03T13:09:26.554Z,13.70
2022-12-03T13:11:57.874Z,13.00
2022-12-03T13:14:25.449Z,14.17
2022-12-03T13:16:53.011Z,13.80
2022-12-03T13:19:22.266Z,13.27
2022-12-03T13:21:50.091Z,14.03
2022-12-03T13:24:35.717Z,13.80
2022-12-03T13:27:03.892Z,12.60
2022-12-03T13:29:30.969Z,11.90
2022-12-03T13:32:02.587Z,14.27
2022-12-03T13:34:33.356Z,14.17
2022-12-03T13:37:00.785Z,13.97
2022-12-03T13:39:29.161Z,12.80
2022-12-03T13:42:14.822Z,13.93
2022-12-03T13:44:46.415Z,16.80
2022-12-03T13:47:15.007Z,15.10
2022-12-03T13:49:42.420Z,13.47
2022-12-03T13:52:13.575Z,14.60
2022-12-03T13:54:40.710Z,15.90
2022-12-03T13:57:07.818Z,15.03
2022-12-03T13:59:35.001Z,15.20
2022-12-03T14:02:02.117Z,13.53
2022-12-03T14:04:29.244Z,15.70
2022-12-03T14:06:56.431Z,16.10
2022-12-03T14:09:23.523Z,15.23
2022-12-03T14:12:09.186Z,16.70
2022-12-03T14:14:36.287Z,14.90
2022-12-03T14:17:04.492Z,15.97
2022-12-03T14:19:31.806Z,18.27
2022-12-03T14:22:00.133Z,15.53
2022-12-03T14:24:27.226Z,17.30
2022-12-03T14:26:54.306Z,15.80
2022-12-03T14:29:21.466Z,15.27
2022-12-03T14:31:48.639Z,16.23
2022-12-03T14:34:15.759Z,16.60
2022-12-03T14:36:42.957Z,17.10
2022-12-03T14:39:10.132Z,16.00
2022-12-03T14:41:55.860Z,16.50
2022-12-03T14:44:23.597Z,16.37
2022-12-03T14:46:55.475Z,16.20
2022-12-03T14:49:24.056Z,15.70
2022-12-03T14:51:51.219Z,17.37
2022-12-03T14:54:18.301Z,15.70
2022-12-03T14:56:45.422Z,17.63
2022-12-03T14:59:12.531Z,19.47
2022-12-03T15:01:39.778Z,16.97
2022-12-03T15:04:06.971Z,19.50
2022-12-03T15:06:34.066Z,18.50
2022-12-03T15:09:01.188Z,18.03
2022-12-03T15:11:28.601Z,18.97
2022-12-03T15:13:55.781Z,17.17
2022-12-03T15:16:23.670Z,17.33
2022-12-03T15:18:50.933Z,17.23
2022-12-03T15:21:18.058Z,18.90
2022-12-03T15:23:45.149Z,17.40
2022-12-03T15:26:12.216Z,19.10
2022-12-03T15:28:40.572Z,18.10
2022-12-03T15:31:09.251Z,19.33
2022-12-03T15:33:36.366Z,15.60
2022-12-03T15:36:03.489Z,17.17
2022-12-03T15:38:30.580Z,17.67
2022-12-03T15:40:58.084Z,18.40
2022-12-03T15:43:25.253Z,16.80
2022-12-03T15:45:52.534Z,18.40
2022-12-03T15:48:19.666Z,17.97
2022-12-03T15:50:46.787Z,18.77
2022-12-03T15:53:13.872Z,19.60
2022-12-03T15:55:41.096Z,18.77
2022-12-03T15:58:08.182Z,20.30
2022-12-03T16:00:35.269Z,17.53
2022-12-03T16:03:02.435Z,19.03
2022-12-03T16:05:29.593Z,19.53
2022-12-03T16:07:56.712Z,16.67
2022-12-03T16:10:23.919Z,18.43
2022-12-03T16:12:51.050Z,17.87
2022-12-03T16:15:21.007Z,18.10
2022-12-03T16:17:52.322Z,17.17
2022-12-03T16:20:19.422Z,17.53
2022-12-03T16:22:46.499Z,18.80
2022-12-03T16:25:13.598Z,18.43
2022-12-03T16:27:40.773Z,18.07
2022-12-03T16:30:08.204Z,17.30
2022-12-03T16:32:35.290Z,18.00
2022-12-03T16:35:02.445Z,17.47
2022-12-03T16:37:29.513Z,17.40
2022-12-03T16:39:57.011Z,16.90
2022-12-03T16:42:24.385Z,18.23
2022-12-03T16:45:12.192Z,17.63
2022-12-03T16:47:39.270Z,16.40
2022-12-03T16:50:07.702Z,16.77
2022-12-03T16:52:35.106Z,18.10
2022-12-03T16:55:02.430Z,15.47
2022-12-03T16:57:33.682Z,16.27
2022-12-03T17:00:01.181Z,17.27
2022-12-03T17:02:28.410Z,16.67
2022-12-03T17:04:55.558Z,16.60
2022-12-03T17:07:22.724Z,18.53
2022-12-03T17:09:49.924Z,17.67
2022-12-03T17:12:17.033Z,16.03
2022-12-03T17:14:44.132Z,17.63
2022-12-03T17:17:11.203Z,17.23
2022-12-03T17:19:38.354Z,18.60
2022-12-03T17:22:05.462Z,15.67
2022-12-03T17:24:32.555Z,18.60
2022-12-03T17:26:59.697Z,19.37
2022-12-03T17:29:42.250Z,19.00
2022-12-03T17:32:09.383Z,17.93
2022-12-03T17:34:36.501Z,17.20
2022-12-03T17:37:03.656Z,17.17
2022-12-03T17:39:30.745Z,16.17
2022-12-03T17:41:57.922Z,15.70
2022-12-03T17:44:25.001Z,17.67
2022-12-03T17:46:52.135Z,15.40
2022-12-03T17:49:19.284Z,16.50
2022-12-03T17:51:46.423Z,14.80
2022-12-03T17:54:13.937Z,15.90
2022-12-03T17:56:43.517Z,17.47
2022-12-03T17:59:13.847Z,16.23
2022-12-03T18:01:41.602Z,17.07
2022-12-03T18:04:10.288Z,16.37
2022-12-03T18:06:37.528Z,17.00
2022-12-03T18:09:05.087Z,16.30
2022-12-03T18:11:32.228Z,16.93
2022-12-03T18:14:01.257Z,16.80
2022-12-03T18:16:28.940Z,13.77
2022-12-03T18:18:57.633Z,17.07
2022-12-03T18:21:28.308Z,17.27
2022-12-03T18:23:55.924Z,14.70
2022-12-03T18:26:23.330Z,16.03
2022-12-03T18:28:50.417Z,15.57
2022-12-03T18:31:18.402Z,15.37
2022-12-03T18:33:45.615Z,16.00
2022-12-03T18:36:19.738Z,15.90
2022-12-03T18:38:50.416Z,16.27
2022-12-03T18:41:18.325Z,14.60
2022-12-03T18:43:45.636Z,16.07
2022-12-03T18:46:31.325Z,14.33
2022-12-03T18:49:01.713Z,14.20
2022-12-03T18:51:29.178Z,13.93
2022-12-03T18:53:56.319Z,13.27
2022-12-03T18:56:23.394Z,12.77
2022-12-03T18:58:50.506Z,15.40
2022-12-03T19:01:18.489Z,16.10
2022-12-03T19:03:45.604Z,15.33
2022-12-03T19:06:17.201Z,17.07
2022-12-03T19:08:46.149Z,16.80
2022-12-03T19:11:13.381Z,15.70
2022-12-03T19:13:40.625Z,14.40
2022-12-03T19:16:08.633Z,14.27
2022-12-03T19:18:35.762Z,14.53
2022-12-03T19:21:12.942Z,14.10
2022-12-03T19:23:40.100Z,14.90
2022-12-03T19:26:07.809Z,12.67
2022-12-03T19:28:34.982Z,13.80
2022-12-03T19:31:02.954Z,13.33
2022-12-03T19:33:30.079Z,14.43
2022-12-03T19:35:57.417Z,14.57
2022-12-03T19:38:24.715Z,14.60
2022-12-03T19:41:01.730Z,15.43
2022-12-03T19:43:28.950Z,13.93
2022-12-03T19:45:56.139Z,14.77
2022-12-03T19:48:23.273Z,14.47
2022-12-03T19:51:02.910Z,13.40
2022-12-03T19:53:38.479Z,13.73
2022-12-03T19:56:06.428Z,14.67
2022-12-03T19:58:33.746Z,14.40
2022-12-03T20:01:10.585Z,14.00
2022-12-03T20:03:41.132Z,12.33
2022-12-03T20:06:08.387Z,14.97
2022-12-03T20:08:38.535Z,14.30
2022-12-03T20:11:15.921Z,14.20
2022-12-03T20:13:43.218Z,13.97
2022-12-03T20:16:12.554Z,14.97
2022-12-03T20:18:40.413Z,14.57
2022-12-03T20:21:07.647Z,15.30
2022-12-03T20:23:34.731Z,15.10
2022-12-03T20:26:02.010Z,14.90
2022-12-03T20:28:29.328Z,15.50
2022-12-03T20:31:00.058Z,15.97
2022-12-03T20:33:27.151Z,14.07
2022-12-03T20:35:54.569Z,16.10
2022-12-03T20:38:24.828Z,15.33
2022-12-03T20:40:51.933Z,14.73
2022-12-03T20:43:18.998Z,16.13
2022-12-03T20:45:47.036Z,15.13
2022-12-03T20:48:14.200Z,16.27
2022-12-03T20:50:41.539Z,15.67
2022-12-03T20:53:24.363Z,15.53
2022-12-03T20:55:58.509Z,15.77
2022-12-03T20:58:25.624Z,15.87
2022-12-03T21:00:52.819Z,16.17
2022-12-03T21:03:19.966Z,16.53
2022-12-03T21:05:47.685Z,17.70
2022-12-03T21:08:14.886Z,16.00
2022-12-03T21:10:45.331Z,16.70
2022-12-03T21:13:15.830Z,15.80
2022-12-03T21:15:43.138Z,17.10
2022-12-03T21:18:11.403Z,15.20
2022-12-03T21:20:42.144Z,17.53
2022-12-03T21:23:09.304Z,15.63
2022-12-03T21:25:36.930Z,16.57
2022-12-03T21:28:04.528Z,15.10
2022-12-03T21:30:31.714Z,16.10
2022-12-03T21:32:58.837Z,15.40
2022-12-03T21:35:25.935Z,14.73
2022-12-03T21:37:53.145Z,16.37
2022-12-03T21:40:20.255Z,17.80
2022-12-03T21:42:47.439Z,16.30
2022-12-03T21:45:14.694Z,15.93
2022-12-03T21:47:41.808Z,15.80
2022-12-03T21:50:11.147Z,14.70
2022-12-03T21:52:38.221Z,16.63
2022-12-03T21:55:06.316Z,17.40
2022-12-03T21:57:35.453Z,14.60
2022-12-03T22:00:03.428Z,15.93
2022-12-03T22:02:30.537Z,16.43
2022-12-03T22:04:57.702Z,14.93
2022-12-03T22:07:24.822Z,16.80
2022-12-03T22:09:52.137Z,15.97
2022-12-03T22:12:19.432Z,13.70
2022-12-03T22:14:46.585Z,17.07
2022-12-03T22:17:13.662Z,15.10
2022-12-03T22:19:40.812Z,15.80
2022-12-03T22:22:07.934Z,15.73
2022-12-03T22:24:35.046Z,15.30
2022-12-03T22:27:03.914Z,15.70
2022-12-03T22:29:31.286Z,16.60
2022-12-03T22:31:58.428Z,17.10
2022-12-03T22:34:25.527Z,16.07
2022-12-03T22:36:52.628Z,14.77
2022-12-03T22:39:19.780Z,15.80
2022-12-03T22:41:46.855Z,16.30
2022-12-03T22:44:13.946Z,15.70
2022-12-03T22:46:41.146Z,17.13
2022-12-03T22:49:08.333Z,17.60
2022-12-03T22:51:35.691Z,15.90
2022-12-03T22:54:02.835Z,15.90
2022-12-03T22:56:30.348Z,15.10
2022-12-03T22:58:57.455Z,40.80
2022-12-03T23:01:44.788Z,16.33
2022-12-03T23:04:12.001Z,14.00
2022-12-03T23:06:39.212Z,15.90
2022-12-03T23:09:06.678Z,15.50
2022-12-03T23:11:33.897Z,14.73
2022-12-03T23:14:01.062Z,16.90
2022-12-03T23:16:29.493Z,16.90
2022-12-03T23:18:58.126Z,14.90
2022-12-03T23:21:29.977Z,15.40
2022-12-03T23:23:58.328Z,15.47
2022-12-03T23:26:25.462Z,15.10
2022-12-03T23:28:52.627Z,15.70
2022-12-03T23:31:20.908Z,15.03
2022-12-03T23:33:48.322Z,15.43
2022-12-03T23:36:15.525Z,15.20
2022-12-03T23:38:42.642Z,15.03
2022-12-03T23:41:13.912Z,16.20
2022-12-03T23:43:41.048Z,16.60
2022-12-03T23:46:15.441Z,15.33
2022-12-03T23:48:42.716Z,15.20
2022-12-03T23:51:10.971Z,15.47
2022-12-03T23:53:38.193Z,15.67
2022-12-03T23:56:06.342Z,15.00
2022-12-03T23:58:34.000Z,14.57
